createdAt,value
2019-01-25T00:00:36.360Z,69.83
2019-01-25T00:03:10.221Z,69.79
2019-01-25T00:05:36.631Z,69.86
2019-01-25T00:08:05.648Z,69.98
2019-01-25T00:10:34.192Z,69.98
2019-01-25T00:13:02.855Z,70.04
2019-01-25T00:15:31.465Z,70.04
2019-01-25T00:18:00.079Z,70.20
2019-01-25T00:20:28.712Z,70.19
2019-01-25T00:22:57.261Z,70.04
2019-01-25T00:25:25.809Z,70.68
2019-01-25T00:27:54.386Z,70.68
2019-01-25T00:30:22.953Z,70.45
2019-01-25T00:32:51.489Z,70.45
2019-01-25T00:35:20.084Z,70.64
2019-01-25T00:37:48.642Z,70.64
2019-01-25T00:40:19.342Z,70.60
2019-01-25T00:42:47.928Z,70.64
2019-01-25T00:45:16.639Z,70.46
2019-01-25T00:47:46.230Z,70.46
2019-01-25T00:50:19.976Z,70.52
2019-01-25T00:52:49.369Z,70.55
2019-01-25T00:55:18.004Z,70.64
2019-01-25T00:57:46.666Z,70.89
2019-01-25T01:00:18.406Z,70.53
2019-01-25T01:02:46.955Z,70.53
2019-01-25T01:05:16.089Z,70.41
2019-01-25T01:07:45.246Z,70.54
2019-01-25T01:10:14.404Z,70.38
2019-01-25T01:12:43.040Z,70.42
2019-01-25T01:15:13.925Z,70.52
2019-01-25T01:17:42.852Z,70.52
2019-01-25T01:20:14.459Z,70.75
2019-01-25T01:22:43.015Z,70.75
2019-01-25T01:25:12.403Z,70.52
2019-01-25T01:27:40.999Z,70.64
2019-01-25T01:30:13.050Z,70.64
2019-01-25T01:32:41.597Z,70.43
2019-01-25T01:35:10.243Z,70.28
2019-01-25T01:37:38.783Z,70.45
2019-01-25T01:40:13.262Z,70.45
2019-01-25T01:42:42.416Z,70.79
2019-01-25T01:45:11.224Z,70.96
2019-01-25T01:47:39.692Z,71.14
2019-01-25T01:50:11.807Z,70.90
2019-01-25T01:52:40.351Z,70.90
2019-01-25T01:55:08.976Z,71.25
2019-01-25T01:57:37.566Z,71.13
2019-01-25T02:00:09.307Z,71.13
2019-01-25T02:02:37.861Z,71.08
2019-01-25T02:05:08.577Z,71.05
2019-01-25T02:07:37.182Z,71.31
2019-01-25T02:10:11.933Z,70.99
2019-01-25T02:12:40.514Z,71.19
2019-01-25T02:15:11.901Z,71.30
2019-01-25T02:17:40.449Z,71.45
2019-01-25T02:20:12.229Z,71.56
2019-01-25T02:22:40.783Z,71.50
2019-01-25T02:25:09.396Z,72.15
2019-01-25T02:27:38.009Z,72.15
2019-01-25T02:30:12.744Z,71.99
2019-01-25T02:32:41.288Z,71.91
2019-01-25T02:35:10.259Z,71.96
2019-01-25T02:37:38.818Z,71.82
2019-01-25T02:40:10.906Z,71.89
2019-01-25T02:42:39.514Z,71.92
2019-01-25T02:45:10.780Z,71.84
2019-01-25T02:47:39.394Z,71.78
2019-01-25T02:50:13.493Z,71.80
2019-01-25T02:52:42.168Z,71.51
2019-01-25T02:55:11.835Z,71.67
2019-01-25T02:57:40.419Z,71.67
2019-01-25T03:00:14.851Z,72.03
2019-01-25T03:02:43.462Z,72.03
2019-01-25T03:05:12.381Z,72.09
2019-01-25T03:07:40.928Z,72.19
2019-01-25T03:10:12.875Z,72.31
2019-01-25T03:12:41.548Z,72.05
2019-01-25T03:15:16.114Z,72.05
2019-01-25T03:17:48.201Z,72.14
2019-01-25T03:20:17.385Z,72.02
2019-01-25T03:22:45.935Z,72.33
2019-01-25T03:25:19.723Z,72.33
2019-01-25T03:27:48.359Z,71.97
2019-01-25T03:30:20.218Z,71.85
2019-01-25T03:32:48.833Z,71.85
2019-01-25T03:35:19.193Z,72.13
2019-01-25T03:37:47.865Z,72.13
2019-01-25T03:40:21.452Z,72.07
2019-01-25T03:42:50.050Z,72.07
2019-01-25T03:45:19.042Z,72.39
2019-01-25T03:47:47.794Z,72.23
2019-01-25T03:50:22.285Z,72.47
2019-01-25T03:52:51.802Z,72.26
2019-01-25T03:55:20.534Z,72.26
2019-01-25T03:57:49.146Z,72.08
2019-01-25T04:00:20.045Z,71.98
2019-01-25T04:02:48.694Z,72.30
2019-01-25T04:05:17.975Z,72.17
2019-01-25T04:07:46.973Z,72.14
2019-01-25T04:10:20.245Z,72.33
2019-01-25T04:12:48.857Z,72.33
2019-01-25T04:15:20.044Z,72.24
2019-01-25T04:17:48.647Z,72.24
2019-01-25T04:20:19.220Z,72.44
2019-01-25T04:22:48.000Z,72.60
2019-01-25T04:25:18.952Z,72.80
2019-01-25T04:27:47.616Z,72.60
2019-01-25T04:30:21.722Z,72.52
2019-01-25T04:32:50.390Z,72.46
2019-01-25T04:35:19.011Z,72.17
2019-01-25T04:37:47.622Z,71.91
2019-01-25T04:40:17.829Z,71.96
2019-01-25T04:42:46.432Z,71.96
2019-01-25T04:45:17.396Z,71.77
2019-01-25T04:47:46.246Z,71.64
2019-01-25T04:50:17.234Z,71.66
2019-01-25T04:52:45.775Z,71.70
2019-01-25T04:55:20.013Z,71.63
2019-01-25T04:57:49.099Z,71.44
2019-01-25T05:00:19.985Z,71.44
2019-01-25T05:03:01.824Z,71.36
2019-01-25T05:05:30.436Z,71.05
2019-01-25T05:08:09.847Z,71.20
2019-01-25T05:10:38.553Z,71.22
2019-01-25T05:13:07.169Z,71.39
2019-01-25T05:15:35.726Z,71.66
2019-01-25T05:18:04.647Z,71.69
2019-01-25T05:20:33.186Z,71.91
2019-01-25T05:23:03.399Z,72.06
2019-01-25T05:25:31.951Z,71.93
2019-01-25T05:28:09.826Z,71.84
2019-01-25T05:30:38.568Z,71.67
2019-01-25T05:33:07.129Z,71.60
2019-01-25T05:35:37.058Z,71.63
2019-01-25T05:38:05.667Z,71.50
2019-01-25T05:40:34.229Z,71.50
2019-01-25T05:43:02.897Z,71.51
2019-01-25T05:45:31.516Z,71.59
2019-01-25T05:48:00.075Z,71.52
2019-01-25T05:50:31.586Z,71.51
2019-01-25T05:53:00.145Z,71.53
2019-01-25T05:55:29.322Z,71.57
2019-01-25T05:58:02.569Z,71.60
2019-01-25T06:00:32.756Z,71.61
2019-01-25T06:03:06.511Z,71.29
2019-01-25T06:05:35.152Z,71.29
2019-01-25T06:08:13.414Z,71.15
2019-01-25T06:10:42.003Z,71.15
2019-01-25T06:13:10.562Z,71.38
2019-01-25T06:15:39.110Z,71.26
2019-01-25T06:18:07.772Z,71.36
2019-01-25T06:20:36.314Z,71.37
2019-01-25T06:23:04.860Z,71.35
2019-01-25T06:25:33.438Z,71.44
2019-01-25T06:28:04.690Z,71.44
2019-01-25T06:30:33.242Z,71.25
2019-01-25T06:33:01.848Z,71.25
2019-01-25T06:35:30.389Z,71.22
2019-01-25T06:37:58.936Z,71.25
2019-01-25T06:40:27.508Z,71.31
2019-01-25T06:42:56.053Z,71.28
2019-01-25T06:45:24.598Z,71.25
2019-01-25T06:47:53.172Z,71.17
2019-01-25T06:50:21.735Z,71.24
2019-01-25T06:52:50.287Z,71.25
2019-01-25T06:55:18.877Z,71.32
2019-01-25T06:57:49.323Z,71.23
2019-01-25T07:00:25.905Z,71.14
2019-01-25T07:02:54.448Z,71.16
2019-01-25T07:05:22.995Z,71.13
2019-01-25T07:07:51.676Z,71.27
2019-01-25T07:10:20.895Z,71.41
2019-01-25T07:12:49.458Z,71.39
2019-01-25T07:15:19.687Z,71.24
2019-01-25T07:17:48.383Z,71.37
2019-01-25T07:20:17.798Z,71.23
2019-01-25T07:22:46.314Z,71.09
2019-01-25T07:25:15.945Z,71.02
2019-01-25T07:27:44.497Z,71.02
2019-01-25T07:30:16.969Z,71.10
2019-01-25T07:32:45.718Z,71.25
2019-01-25T07:35:14.571Z,71.31
2019-01-25T07:37:43.200Z,71.37
2019-01-25T07:40:12.227Z,71.42
2019-01-25T07:42:41.008Z,71.52
2019-01-25T07:45:13.504Z,71.71
2019-01-25T07:47:42.045Z,71.75
2019-01-25T07:50:13.696Z,71.77
2019-01-25T07:52:42.313Z,71.76
2019-01-25T07:55:12.568Z,71.67
2019-01-25T07:57:41.273Z,71.66
2019-01-25T08:00:13.048Z,71.64
2019-01-25T08:02:41.587Z,71.72
2019-01-25T08:05:10.700Z,71.74
2019-01-25T08:07:39.780Z,71.66
2019-01-25T08:10:22.397Z,71.61
2019-01-25T08:12:50.973Z,71.66
2019-01-25T08:15:25.538Z,71.74
2019-01-25T08:17:54.338Z,71.68
2019-01-25T08:20:22.957Z,71.59
2019-01-25T08:22:51.545Z,71.50
2019-01-25T08:25:20.196Z,71.74
2019-01-25T08:27:49.015Z,71.77
2019-01-25T08:30:22.891Z,71.83
2019-01-25T08:32:51.929Z,72.12
2019-01-25T08:35:21.403Z,72.13
2019-01-25T08:37:50.061Z,72.16
2019-01-25T08:40:18.929Z,72.16
2019-01-25T08:42:47.644Z,72.32
2019-01-25T08:45:18.304Z,72.37
2019-01-25T08:47:47.018Z,72.52
2019-01-25T08:50:21.173Z,72.62
2019-01-25T08:52:49.832Z,72.74
2019-01-25T08:55:18.537Z,72.63
2019-01-25T08:57:47.083Z,72.74
2019-01-25T09:00:21.226Z,72.72
2019-01-25T09:02:50.021Z,72.98
2019-01-25T09:05:18.840Z,72.98
2019-01-25T09:07:47.468Z,72.73
2019-01-25T09:10:20.789Z,72.74
2019-01-25T09:12:49.366Z,72.44
2019-01-25T09:15:23.763Z,72.60
2019-01-25T09:17:52.306Z,72.66
2019-01-25T09:20:22.156Z,73.00
2019-01-25T09:22:50.703Z,73.07
2019-01-25T09:25:19.460Z,72.94
2019-01-25T09:27:48.601Z,72.87
2019-01-25T09:30:19.843Z,72.92
2019-01-25T09:32:48.450Z,72.73
2019-01-25T09:35:17.792Z,72.62
2019-01-25T09:37:48.527Z,72.85
2019-01-25T09:40:21.381Z,72.64
2019-01-25T09:42:50.178Z,72.56
2019-01-25T09:45:18.789Z,72.50
2019-01-25T09:47:47.384Z,72.55
2019-01-25T09:50:23.425Z,72.50
2019-01-25T09:52:52.967Z,72.42
2019-01-25T09:55:25.893Z,72.54
2019-01-25T09:58:00.601Z,72.79
2019-01-25T10:00:35.097Z,72.70
2019-01-25T10:03:03.654Z,72.58
2019-01-25T10:05:32.487Z,72.49
2019-01-25T10:08:01.045Z,72.37
2019-01-25T10:10:29.679Z,72.35
2019-01-25T10:12:58.266Z,72.38
2019-01-25T10:15:29.021Z,72.37
2019-01-25T10:17:57.748Z,72.24
2019-01-25T10:20:26.782Z,72.12
2019-01-25T10:22:55.351Z,72.34
2019-01-25T10:25:23.985Z,72.38
2019-01-25T10:27:52.573Z,72.31
2019-01-25T10:30:24.282Z,72.11
2019-01-25T10:32:52.841Z,71.59
2019-01-25T10:35:22.565Z,70.97
2019-01-25T10:37:52.455Z,70.54
2019-01-25T10:40:22.536Z,70.04
2019-01-25T10:42:53.238Z,69.90
2019-01-25T10:45:27.575Z,70.08
2019-01-25T10:47:56.176Z,69.84
2019-01-25T10:50:24.723Z,69.80
2019-01-25T10:52:53.267Z,69.75
2019-01-25T10:55:21.908Z,69.59
2019-01-25T10:57:50.459Z,69.29
2019-01-25T11:00:21.491Z,69.45
2019-01-25T11:02:57.652Z,69.28
2019-01-25T11:05:28.785Z,69.34
2019-01-25T11:07:57.685Z,69.24
2019-01-25T11:10:26.289Z,69.26
2019-01-25T11:13:00.778Z,69.47
2019-01-25T11:15:25.676Z,69.50
2019-01-25T11:17:54.223Z,69.25
2019-01-25T11:20:24.707Z,69.14
2019-01-25T11:22:53.628Z,69.18
2019-01-25T11:25:28.148Z,69.42
2019-01-25T11:27:56.768Z,69.41
2019-01-25T11:30:25.425Z,69.64
2019-01-25T11:32:53.976Z,69.42
2019-01-25T11:35:22.591Z,69.29
2019-01-25T11:37:51.194Z,69.15
2019-01-25T11:40:22.764Z,69.21
2019-01-25T11:42:51.312Z,69.36
2019-01-25T11:45:19.913Z,69.31
2019-01-25T11:47:48.436Z,69.30
2019-01-25T11:50:21.077Z,69.30
2019-01-25T11:52:49.660Z,69.40
2019-01-25T11:55:19.150Z,69.33
2019-01-25T11:57:47.935Z,69.21
2019-01-25T12:00:28.145Z,69.09
2019-01-25T12:02:56.695Z,68.90
2019-01-25T12:05:25.986Z,68.87
2019-01-25T12:07:55.310Z,69.08
2019-01-25T12:10:29.446Z,69.41
2019-01-25T12:12:58.006Z,69.55
2019-01-25T12:15:26.607Z,69.54
2019-01-25T12:17:55.241Z,69.59
2019-01-25T12:20:31.662Z,69.70
2019-01-25T12:23:00.494Z,69.73
2019-01-25T12:25:29.114Z,69.77
2019-01-25T12:27:57.847Z,69.79
2019-01-25T12:30:37.847Z,69.66
2019-01-25T12:33:06.291Z,69.77
2019-01-25T12:35:37.176Z,69.63
2019-01-25T12:38:05.935Z,69.68
2019-01-25T12:40:34.849Z,69.58
2019-01-25T12:43:03.390Z,69.22
2019-01-25T12:45:32.464Z,69.46
2019-01-25T12:48:01.042Z,69.67
2019-01-25T12:50:35.233Z,69.48
2019-01-25T12:53:06.256Z,69.07
2019-01-25T12:55:34.823Z,69.17
2019-01-25T12:58:03.353Z,69.32
2019-01-25T13:00:31.988Z,69.36
2019-01-25T13:03:00.544Z,69.56
2019-01-25T13:05:29.168Z,69.65
2019-01-25T13:07:57.764Z,69.54
2019-01-25T13:10:27.555Z,69.46
2019-01-25T13:12:56.533Z,69.13
2019-01-25T13:15:25.117Z,68.84
2019-01-25T13:17:53.684Z,68.77
2019-01-25T13:20:24.575Z,68.78
2019-01-25T13:22:53.226Z,68.57
2019-01-25T13:25:22.014Z,68.48
2019-01-25T13:27:50.629Z,68.65
2019-01-25T13:30:21.879Z,68.73
2019-01-25T13:32:50.499Z,68.73
2019-01-25T13:35:19.204Z,68.80
2019-01-25T13:37:47.798Z,68.68
2019-01-25T13:40:19.049Z,68.69
2019-01-25T13:42:47.599Z,68.61
2019-01-25T13:45:18.025Z,68.38
2019-01-25T13:47:46.728Z,68.39
2019-01-25T13:50:20.909Z,68.49
2019-01-25T13:52:49.507Z,68.63
2019-01-25T13:55:18.249Z,68.69
2019-01-25T13:57:46.860Z,69.42
2019-01-25T14:00:26.776Z,68.85
2019-01-25T14:02:55.327Z,69.04
2019-01-25T14:05:24.146Z,69.14
2019-01-25T14:07:52.811Z,69.25
2019-01-25T14:10:29.360Z,69.45
2019-01-25T14:12:57.930Z,69.47
2019-01-25T14:15:26.608Z,69.48
2019-01-25T14:17:55.144Z,69.47
2019-01-25T14:20:25.955Z,69.67
2019-01-25T14:22:54.518Z,69.74
2019-01-25T14:25:23.201Z,69.92
2019-01-25T14:27:52.156Z,69.89
2019-01-25T14:30:29.624Z,69.76
2019-01-25T14:32:58.225Z,69.64
2019-01-25T14:35:26.767Z,69.78
2019-01-25T14:37:55.403Z,69.80
2019-01-25T14:40:23.984Z,69.82
2019-01-25T14:42:52.526Z,69.84
2019-01-25T14:45:21.146Z,69.66
2019-01-25T14:47:49.783Z,69.50
2019-01-25T14:50:24.225Z,69.61
2019-01-25T14:52:52.851Z,69.58
2019-01-25T14:55:23.067Z,69.87
2019-01-25T14:57:51.689Z,70.02
2019-01-25T15:00:20.241Z,69.88
2019-01-25T15:02:48.816Z,69.80
2019-01-25T15:05:18.722Z,69.81
2019-01-25T15:07:47.338Z,69.80
2019-01-25T15:10:21.303Z,69.78
2019-01-25T15:12:50.225Z,69.43
2019-01-25T15:15:18.763Z,69.59
2019-01-25T15:17:47.610Z,69.57
2019-01-25T15:20:21.855Z,69.71
2019-01-25T15:22:50.466Z,69.65
2019-01-25T15:25:19.182Z,69.56
2019-01-25T15:27:47.726Z,69.12
2019-01-25T15:30:19.063Z,68.92
2019-01-25T15:32:47.665Z,69.07
2019-01-25T15:35:17.859Z,69.22
2019-01-25T15:37:46.402Z,69.20
2019-01-25T15:40:17.304Z,69.07
2019-01-25T15:42:45.867Z,69.20
2019-01-25T15:45:16.666Z,69.26
2019-01-25T15:47:45.614Z,69.06
2019-01-25T15:50:19.342Z,68.93
2019-01-25T15:52:47.966Z,68.67
2019-01-25T15:55:17.013Z,68.54
2019-01-25T15:57:45.568Z,68.41
2019-01-25T16:00:16.729Z,68.25
2019-01-25T16:02:45.381Z,68.17
2019-01-25T16:05:16.360Z,68.23
2019-01-25T16:07:44.922Z,67.98
2019-01-25T16:10:16.317Z,67.73
2019-01-25T16:12:44.864Z,67.62
2019-01-25T16:15:15.851Z,67.45
2019-01-25T16:17:44.517Z,67.27
2019-01-25T16:20:16.616Z,67.27
2019-01-25T16:22:45.445Z,67.59
2019-01-25T16:25:16.666Z,67.17
2019-01-25T16:27:45.222Z,66.25
2019-01-25T16:30:17.080Z,65.24
2019-01-25T16:32:45.681Z,65.17
2019-01-25T16:35:14.594Z,64.38
2019-01-25T16:37:43.140Z,64.40
2019-01-25T16:40:20.363Z,63.65
2019-01-25T16:42:48.934Z,63.62
2019-01-25T16:45:20.266Z,63.26
2019-01-25T16:47:48.849Z,63.38
2019-01-25T16:50:23.612Z,63.14
2019-01-25T16:52:47.907Z,63.14
2019-01-25T16:55:16.763Z,63.15
2019-01-25T16:57:46.058Z,63.38
2019-01-25T17:00:31.775Z,63.38
2019-01-25T17:03:00.474Z,63.48
2019-01-25T17:05:29.162Z,63.29
2019-01-25T17:07:57.733Z,63.03
2019-01-25T17:10:26.343Z,63.16
2019-01-25T17:12:54.908Z,63.07
2019-01-25T17:15:23.556Z,63.04
2019-01-25T17:17:52.101Z,62.68
2019-01-25T17:20:26.018Z,62.40
2019-01-25T17:22:54.923Z,62.40
2019-01-25T17:25:23.477Z,62.36
2019-01-25T17:27:52.168Z,62.34
2019-01-25T17:30:28.686Z,62.38
2019-01-25T17:32:58.874Z,62.33
2019-01-25T17:35:27.789Z,62.47
2019-01-25T17:37:56.620Z,62.53
2019-01-25T17:40:27.920Z,62.52
2019-01-25T17:42:57.678Z,62.28
2019-01-25T17:45:26.343Z,62.31
2019-01-25T17:47:54.982Z,62.30
2019-01-25T17:50:23.829Z,62.31
2019-01-25T17:52:52.467Z,62.28
2019-01-25T17:55:21.018Z,62.35
2019-01-25T17:57:49.563Z,62.68
2019-01-25T18:00:31.128Z,62.57
2019-01-25T18:02:59.727Z,62.46
2019-01-25T18:05:28.274Z,62.39
2019-01-25T18:07:56.956Z,62.59
2019-01-25T18:10:26.040Z,62.80
2019-01-25T18:12:54.594Z,62.94
2019-01-25T18:15:23.237Z,62.81
2019-01-25T18:17:51.785Z,62.73
2019-01-25T18:20:22.846Z,62.68
2019-01-25T18:22:51.497Z,62.72
2019-01-25T18:25:26.351Z,62.76
2019-01-25T18:28:00.436Z,62.74
2019-01-25T18:30:44.240Z,62.89
2019-01-25T18:33:12.821Z,62.94
2019-01-25T18:35:41.374Z,63.30
2019-01-25T18:38:09.927Z,63.35
2019-01-25T18:40:38.519Z,63.54
2019-01-25T18:43:07.412Z,63.65
2019-01-25T18:45:35.954Z,63.84
2019-01-25T18:48:04.705Z,63.97
2019-01-25T18:50:33.256Z,64.13
2019-01-25T18:53:01.793Z,64.31
2019-01-25T18:55:30.369Z,64.53
2019-01-25T18:57:58.931Z,64.73
2019-01-25T19:00:27.475Z,64.90
2019-01-25T19:02:56.063Z,65.13
2019-01-25T19:05:24.622Z,65.27
2019-01-25T19:07:53.190Z,65.33
2019-01-25T19:10:24.599Z,65.59
2019-01-25T19:12:53.150Z,65.81
2019-01-25T19:15:27.385Z,65.88
2019-01-25T19:17:56.035Z,65.97
2019-01-25T19:20:24.655Z,66.24
2019-01-25T19:22:53.274Z,66.35
2019-01-25T19:25:21.911Z,66.47
2019-01-25T19:27:50.913Z,66.59
2019-01-25T19:30:25.655Z,66.69
2019-01-25T19:32:54.241Z,66.84
2019-01-25T19:35:22.845Z,66.91
2019-01-25T19:37:51.460Z,66.96
2019-01-25T19:40:23.046Z,66.97
2019-01-25T19:42:51.664Z,67.06
2019-01-25T19:45:20.296Z,67.16
2019-01-25T19:47:48.920Z,67.25
2019-01-25T19:50:20.251Z,67.30
2019-01-25T19:52:49.034Z,67.42
2019-01-25T19:55:28.996Z,67.58
2019-01-25T19:57:58.985Z,67.79
2019-01-25T20:00:30.175Z,67.83
2019-01-25T20:02:58.773Z,68.00
2019-01-25T20:05:29.730Z,68.13
2019-01-25T20:07:58.355Z,68.53
2019-01-25T20:10:27.024Z,68.63
2019-01-25T20:12:55.655Z,68.79
2019-01-25T20:15:26.044Z,69.04
2019-01-25T20:17:54.687Z,69.17
2019-01-25T20:20:28.941Z,69.47
2019-01-25T20:22:57.587Z,69.72
2019-01-25T20:25:26.175Z,69.93
2019-01-25T20:27:54.797Z,70.00
2019-01-25T20:30:25.923Z,70.27
2019-01-25T20:32:54.529Z,70.47
2019-01-25T20:35:25.822Z,70.47
2019-01-25T20:37:54.518Z,70.72
2019-01-25T20:40:23.120Z,70.78
2019-01-25T20:42:51.733Z,70.87
2019-01-25T20:45:27.281Z,70.99
2019-01-25T20:47:56.074Z,71.06
2019-01-25T20:50:26.853Z,71.20
2019-01-25T20:52:55.425Z,71.35
2019-01-25T20:55:24.327Z,71.38
2019-01-25T20:57:53.023Z,71.43
2019-01-25T21:00:26.995Z,71.64
2019-01-25T21:02:55.726Z,71.70
2019-01-25T21:05:24.861Z,71.74
2019-01-25T21:07:53.407Z,71.80
2019-01-25T21:10:24.139Z,71.91
2019-01-25T21:12:52.746Z,72.01
2019-01-25T21:15:26.305Z,72.10
2019-01-25T21:17:55.234Z,72.09
2019-01-25T21:20:26.495Z,72.19
2019-01-25T21:22:55.116Z,72.28
2019-01-25T21:25:23.756Z,72.36
2019-01-25T21:27:52.299Z,72.41
2019-01-25T21:30:23.803Z,72.48
2019-01-25T21:32:52.729Z,72.50
2019-01-25T21:35:21.350Z,72.64
2019-01-25T21:37:50.003Z,72.68
2019-01-25T21:40:23.875Z,72.66
2019-01-25T21:42:52.427Z,72.75
2019-01-25T21:45:23.025Z,72.87
2019-01-25T21:47:51.736Z,72.98
2019-01-25T21:50:26.043Z,73.02
2019-01-25T21:52:54.749Z,73.13
2019-01-25T21:55:23.399Z,73.19
2019-01-25T21:57:52.016Z,73.32
2019-01-25T22:00:28.872Z,73.38
2019-01-25T22:02:57.431Z,73.48
2019-01-25T22:05:26.043Z,73.61
2019-01-25T22:07:54.633Z,73.58
2019-01-25T22:10:28.572Z,73.74
2019-01-25T22:12:57.199Z,73.72
2019-01-25T22:15:25.783Z,73.76
2019-01-25T22:17:54.399Z,73.85
2019-01-25T22:20:25.278Z,73.77
2019-01-25T22:22:53.869Z,73.95
2019-01-25T22:25:22.589Z,73.89
2019-01-25T22:27:52.484Z,74.12
2019-01-25T22:30:23.103Z,74.10
2019-01-25T22:32:51.717Z,74.16
2019-01-25T22:35:20.423Z,74.13
2019-01-25T22:37:49.027Z,74.22
2019-01-25T22:40:19.726Z,74.37
2019-01-25T22:42:48.265Z,74.50
2019-01-25T22:45:22.293Z,74.45
2019-01-25T22:47:50.825Z,74.63
2019-01-25T22:50:27.705Z,74.54
2019-01-25T22:52:56.272Z,74.58
2019-01-25T22:55:25.600Z,74.54
2019-01-25T22:57:54.179Z,74.55
2019-01-25T23:00:51.258Z,74.71
2019-01-25T23:03:28.765Z,74.75
2019-01-25T23:06:29.377Z,74.76
2019-01-25T23:09:01.269Z,74.95
2019-01-25T23:11:29.814Z,75.06
2019-01-25T23:13:58.363Z,75.10
2019-01-25T23:16:26.959Z,75.24
2019-01-25T23:18:55.835Z,75.37
2019-01-25T23:21:24.398Z,75.38
2019-01-25T23:23:52.998Z,75.30
2019-01-25T23:26:21.565Z,75.30
2019-01-25T23:28:50.106Z,75.41
2019-01-25T23:31:18.678Z,75.38
2019-01-25T23:33:47.300Z,75.31
2019-01-25T23:36:16.425Z,75.39
2019-01-25T23:38:45.022Z,75.38
2019-01-25T23:41:13.577Z,75.38
2019-01-25T23:43:42.124Z,75.35
2019-01-25T23:46:13.870Z,75.39
2019-01-25T23:48:41.184Z,75.39
2019-01-25T23:51:09.810Z,75.29
2019-01-25T23:53:38.417Z,75.32
2019-01-25T23:56:06.965Z,75.30
2019-01-25T23:58:35.517Z,75.13
